createdAt,value
2023-02-28T00:00:36.948Z,3.67
2023-02-28T00:03:04.136Z,3.78
2023-02-28T00:05:30.819Z,3.50
2023-02-28T00:07:57.371Z,3.47
2023-02-28T00:10:27.492Z,3.88
2023-02-28T00:12:57.749Z,3.53
2023-02-28T00:15:24.684Z,3.30
2023-02-28T00:17:52.080Z,3.65
2023-02-28T00:20:19.257Z,3.38
2023-02-28T00:22:49.070Z,3.47
2023-02-28T00:25:19.109Z,3.53
2023-02-28T00:27:46.215Z,3.38
2023-02-28T00:30:16.089Z,3.40
2023-02-28T00:32:42.843Z,3.72
2023-02-28T00:35:10.547Z,3.45
2023-02-28T00:37:37.398Z,3.35
2023-02-28T00:40:07.290Z,3.50
2023-02-28T00:42:35.302Z,3.45
2023-02-28T00:45:02.261Z,3.40
2023-02-28T00:47:28.956Z,3.55
2023-02-28T00:49:55.956Z,3.70
2023-02-28T00:52:22.756Z,3.80
2023-02-28T00:54:49.378Z,3.50
2023-02-28T00:57:16.152Z,3.60
2023-02-28T00:59:42.709Z,3.42
2023-02-28T01:02:09.320Z,4.13
2023-02-28T01:04:37.183Z,3.63
2023-02-28T01:07:04.213Z,3.50
2023-02-28T01:09:30.896Z,3.90
2023-02-28T01:11:58.589Z,3.83
2023-02-28T01:14:25.280Z,3.85
2023-02-28T01:16:52.740Z,3.75
2023-02-28T01:19:19.294Z,3.55
2023-02-28T01:21:46.850Z,3.40
2023-02-28T01:24:13.568Z,3.78
2023-02-28T01:26:40.153Z,3.90
2023-02-28T01:29:07.759Z,3.38
2023-02-28T01:31:34.372Z,3.50
2023-02-28T01:34:01.039Z,3.60
2023-02-28T01:36:30.318Z,3.75
2023-02-28T01:38:57.438Z,3.38
2023-02-28T01:41:30.153Z,3.60
2023-02-28T01:44:05.916Z,3.50
2023-02-28T01:46:35.685Z,3.65
2023-02-28T01:49:14.770Z,3.80
2023-02-28T01:51:51.895Z,3.80
2023-02-28T01:54:24.297Z,3.58
2023-02-28T01:56:56.317Z,4.00
2023-02-28T01:59:32.354Z,3.83
2023-02-28T02:01:59.094Z,3.60
2023-02-28T02:04:27.368Z,3.55
2023-02-28T02:06:53.953Z,3.88
2023-02-28T02:09:20.543Z,3.95
2023-02-28T02:11:47.532Z,3.75
2023-02-28T02:14:35.256Z,4.13
2023-02-28T02:17:09.757Z,3.70
2023-02-28T02:19:51.499Z,3.50
2023-02-28T02:22:48.981Z,3.67
2023-02-28T02:25:22.825Z,3.75
2023-02-28T02:27:58.560Z,4.18
2023-02-28T02:30:46.819Z,3.60
2023-02-28T02:33:38.762Z,3.60
2023-02-28T02:36:17.717Z,3.65
2023-02-28T02:38:54.504Z,3.95
2023-02-28T02:41:21.187Z,3.80
2023-02-28T02:44:08.301Z,3.25
2023-02-28T02:46:38.207Z,4.05
2023-02-28T02:49:07.806Z,3.72
2023-02-28T02:51:36.330Z,3.95
2023-02-28T02:54:22.489Z,3.78
2023-02-28T02:56:50.657Z,3.75
2023-02-28T02:59:22.237Z,4.30
2023-02-28T03:02:01.308Z,3.85
2023-02-28T03:04:32.506Z,3.95
2023-02-28T03:06:59.188Z,3.80
2023-02-28T03:09:27.086Z,3.75
2023-02-28T03:11:56.779Z,4.03
2023-02-28T03:14:27.167Z,3.65
2023-02-28T03:16:56.785Z,3.92
2023-02-28T03:19:44.585Z,3.60
2023-02-28T03:22:54.276Z,3.90
2023-02-28T03:25:29.820Z,4.00
2023-02-28T03:28:10.067Z,3.92
2023-02-28T03:31:01.270Z,4.00
2023-02-28T03:33:38.913Z,3.90
2023-02-28T03:36:17.242Z,3.92
2023-02-28T03:38:57.501Z,3.95
2023-02-28T03:41:28.970Z,4.00
2023-02-28T03:44:18.404Z,3.92
2023-02-28T03:47:28.080Z,4.30
2023-02-28T03:49:58.022Z,4.22
2023-02-28T03:52:28.438Z,4.03
2023-02-28T03:54:57.506Z,4.03
2023-02-28T03:57:30.005Z,4.30
2023-02-28T04:00:30.098Z,4.13
2023-02-28T04:02:56.898Z,4.05
2023-02-28T04:05:24.004Z,4.22
2023-02-28T04:07:50.653Z,4.70
2023-02-28T04:10:17.966Z,4.35
2023-02-28T04:12:46.482Z,4.65
2023-02-28T04:15:13.192Z,4.53
2023-02-28T04:17:39.927Z,4.47
2023-02-28T04:20:10.521Z,4.90
2023-02-28T04:22:38.339Z,4.30
2023-02-28T04:25:06.676Z,4.32
2023-02-28T04:27:33.567Z,4.38
2023-02-28T04:30:00.159Z,4.00
2023-02-28T04:32:27.007Z,4.43
2023-02-28T04:34:53.633Z,4.47
2023-02-28T04:37:20.986Z,4.10
2023-02-28T04:39:47.604Z,4.15
2023-02-28T04:42:14.620Z,4.30
2023-02-28T04:44:41.185Z,4.40
2023-02-28T04:47:07.799Z,4.50
2023-02-28T04:49:34.419Z,4.32
2023-02-28T04:52:01.009Z,3.88
2023-02-28T04:54:27.719Z,4.25
2023-02-28T04:56:54.333Z,4.40
2023-02-28T04:59:21.447Z,3.90
2023-02-28T05:01:49.397Z,4.30
2023-02-28T05:04:16.070Z,3.83
2023-02-28T05:06:43.472Z,4.07
2023-02-28T05:09:12.422Z,3.92
2023-02-28T05:11:40.503Z,4.40
2023-02-28T05:14:12.687Z,4.00
2023-02-28T05:16:39.361Z,4.05
2023-02-28T05:19:06.201Z,3.92
2023-02-28T05:21:35.929Z,4.35
2023-02-28T05:24:07.679Z,4.20
2023-02-28T05:26:39.769Z,4.10
2023-02-28T05:29:06.359Z,4.28
2023-02-28T05:31:33.847Z,4.30
2023-02-28T05:34:00.853Z,4.32
2023-02-28T05:36:27.493Z,4.22
2023-02-28T05:38:54.181Z,4.35
2023-02-28T05:41:21.480Z,4.00
2023-02-28T05:43:48.919Z,4.47
2023-02-28T05:46:16.154Z,4.35
2023-02-28T05:48:43.534Z,4.15
2023-02-28T05:51:10.550Z,4.55
2023-02-28T05:53:37.395Z,3.90
2023-02-28T05:56:04.722Z,4.35
2023-02-28T05:58:32.127Z,4.45
2023-02-28T06:01:00.371Z,4.10
2023-02-28T06:03:27.563Z,4.30
2023-02-28T06:05:54.345Z,4.15
2023-02-28T06:08:20.998Z,9.40
2023-02-28T06:10:47.657Z,12.18
2023-02-28T06:13:14.279Z,10.77
2023-02-28T06:15:41.520Z,30.35
2023-02-28T06:18:08.303Z,57.67
2023-02-28T06:20:35.535Z,43.90
2023-02-28T06:23:02.161Z,40.05
2023-02-28T06:25:29.087Z,37.67
2023-02-28T06:27:56.488Z,35.28
2023-02-28T06:30:26.308Z,29.83
2023-02-28T06:32:53.195Z,28.65
2023-02-28T06:35:20.076Z,25.30
2023-02-28T06:37:48.033Z,24.27
2023-02-28T06:40:14.924Z,22.58
2023-02-28T06:42:41.518Z,20.70
2023-02-28T06:45:10.481Z,19.05
2023-02-28T06:47:39.013Z,19.70
2023-02-28T06:50:06.364Z,17.92
2023-02-28T06:52:33.241Z,17.08
2023-02-28T06:55:02.721Z,17.00
2023-02-28T06:57:33.662Z,16.17
2023-02-28T07:00:00.941Z,15.18
2023-02-28T07:02:28.139Z,15.52
2023-02-28T07:04:54.772Z,14.18
2023-02-28T07:07:21.475Z,13.50
2023-02-28T07:09:48.039Z,12.38
2023-02-28T07:12:14.715Z,12.55
2023-02-28T07:14:41.315Z,12.73
2023-02-28T07:17:13.023Z,12.88
2023-02-28T07:19:40.676Z,12.65
2023-02-28T07:22:08.321Z,12.70
2023-02-28T07:24:35.126Z,12.38
2023-02-28T07:27:02.507Z,12.38
2023-02-28T07:29:29.621Z,12.00
2023-02-28T07:31:56.613Z,11.82
2023-02-28T07:34:23.700Z,12.13
2023-02-28T07:36:54.434Z,11.60
2023-02-28T07:39:22.021Z,11.27
2023-02-28T07:41:48.994Z,11.52
2023-02-28T07:44:15.672Z,11.43
2023-02-28T07:46:42.324Z,11.85
2023-02-28T07:49:09.143Z,11.35
2023-02-28T07:51:35.735Z,11.32
2023-02-28T07:54:02.526Z,11.13
2023-02-28T07:56:29.384Z,10.65
2023-02-28T07:58:56.277Z,10.88
2023-02-28T08:01:23.197Z,11.50
2023-02-28T08:03:49.833Z,10.23
2023-02-28T08:06:19.654Z,10.73
2023-02-28T08:08:46.927Z,11.23
2023-02-28T08:11:13.516Z,10.40
2023-02-28T08:13:40.114Z,10.75
2023-02-28T08:16:07.025Z,10.43
2023-02-28T08:18:33.934Z,10.18
2023-02-28T08:21:00.987Z,9.95
2023-02-28T08:23:27.529Z,10.40
2023-02-28T08:25:57.260Z,10.15
2023-02-28T08:28:27.015Z,10.60
2023-02-28T08:30:54.763Z,9.88
2023-02-28T08:33:21.969Z,9.95
2023-02-28T08:35:48.659Z,10.27
2023-02-28T08:38:15.253Z,10.35
2023-02-28T08:40:41.803Z,10.30
2023-02-28T08:43:08.345Z,9.32
2023-02-28T08:45:34.996Z,9.57
2023-02-28T08:48:01.573Z,9.57
2023-02-28T08:50:28.211Z,9.35
2023-02-28T08:52:54.793Z,9.82
2023-02-28T08:55:21.421Z,10.15
2023-02-28T08:57:48.023Z,9.35
2023-02-28T09:00:14.843Z,9.50
2023-02-28T09:02:43.675Z,9.30
2023-02-28T09:05:10.833Z,9.38
2023-02-28T09:07:37.459Z,8.73
2023-02-28T09:10:04.404Z,9.23
2023-02-28T09:12:35.540Z,9.15
2023-02-28T09:15:02.944Z,9.20
2023-02-28T09:17:30.819Z,8.73
2023-02-28T09:19:58.197Z,9.18
2023-02-28T09:22:25.192Z,9.23
2023-02-28T09:24:51.813Z,9.35
2023-02-28T09:27:18.463Z,9.15
2023-02-28T09:29:45.090Z,9.10
2023-02-28T09:32:11.747Z,9.35
2023-02-28T09:34:38.714Z,8.90
2023-02-28T09:37:05.633Z,8.95
2023-02-28T09:39:32.840Z,9.20
2023-02-28T09:41:59.534Z,9.10
2023-02-28T09:44:44.953Z,8.82
2023-02-28T09:47:17.839Z,8.70
2023-02-28T09:49:47.946Z,8.98
2023-02-28T09:52:31.382Z,8.52
2023-02-28T09:55:07.190Z,9.73
2023-02-28T09:57:40.544Z,8.60
2023-02-28T10:00:20.308Z,9.02
2023-02-28T10:03:19.385Z,8.50
2023-02-28T10:06:16.016Z,9.10
2023-02-28T10:08:51.758Z,8.68
2023-02-28T10:11:19.324Z,8.60
2023-02-28T10:14:02.390Z,8.60
2023-02-28T10:16:40.135Z,8.45
2023-02-28T10:19:14.111Z,8.57
2023-02-28T10:21:48.890Z,8.77
2023-02-28T10:24:30.615Z,8.07
2023-02-28T10:27:01.509Z,8.43
2023-02-28T10:29:32.124Z,8.18
2023-02-28T10:32:00.772Z,7.95
2023-02-28T10:34:27.340Z,8.23
2023-02-28T10:36:54.735Z,8.20
2023-02-28T10:39:44.671Z,7.95
2023-02-28T10:42:21.835Z,7.95
2023-02-28T10:44:48.650Z,7.40
2023-02-28T10:47:18.279Z,7.72
2023-02-28T10:49:50.001Z,7.65
2023-02-28T10:52:35.031Z,8.05
2023-02-28T10:55:24.042Z,7.70
2023-02-28T10:57:50.833Z,7.88
2023-02-28T11:00:26.412Z,7.80
2023-02-28T11:02:53.015Z,7.70
2023-02-28T11:05:32.757Z,6.80
2023-02-28T11:08:13.759Z,7.28
2023-02-28T11:10:40.888Z,7.57
2023-02-28T11:13:07.512Z,8.10
2023-02-28T11:15:35.184Z,6.97
2023-02-28T11:18:14.034Z,7.25
2023-02-28T11:20:41.323Z,7.18
2023-02-28T11:23:13.392Z,7.63
2023-02-28T11:25:40.142Z,7.00
2023-02-28T11:28:24.982Z,6.80
2023-02-28T11:31:12.082Z,6.93
2023-02-28T11:33:49.728Z,6.85
2023-02-28T11:36:22.320Z,6.82
2023-02-28T11:38:50.604Z,6.68
2023-02-28T11:41:37.947Z,6.80
2023-02-28T11:44:39.543Z,6.60
2023-02-28T11:47:08.993Z,6.97
2023-02-28T11:49:44.440Z,6.63
2023-02-28T11:52:26.362Z,6.68
2023-02-28T11:55:08.413Z,6.57
2023-02-28T11:57:55.399Z,6.25
2023-02-28T12:00:33.808Z,6.57
2023-02-28T12:03:25.047Z,6.70
2023-02-28T12:05:59.295Z,6.60
2023-02-28T12:09:01.593Z,6.70
2023-02-28T12:11:54.824Z,6.40
2023-02-28T12:14:48.246Z,6.22
2023-02-28T12:17:39.786Z,6.88
2023-02-28T12:20:21.461Z,6.10
2023-02-28T12:23:03.313Z,6.55
2023-02-28T12:25:51.288Z,6.18
2023-02-28T12:28:23.107Z,6.70
2023-02-28T12:31:03.044Z,6.13
2023-02-28T12:33:35.860Z,6.35
2023-02-28T12:36:07.287Z,6.15
2023-02-28T12:39:01.492Z,6.32
2023-02-28T12:41:32.453Z,6.13
2023-02-28T12:44:06.724Z,6.32
2023-02-28T12:46:37.634Z,6.20
2023-02-28T12:49:11.669Z,6.00
2023-02-28T12:51:38.911Z,5.97
2023-02-28T12:54:08.378Z,6.28
2023-02-28T12:56:59.356Z,5.30
2023-02-28T12:59:37.302Z,5.88
2023-02-28T13:02:34.284Z,6.00
2023-02-28T13:05:14.126Z,5.95
2023-02-28T13:08:05.716Z,6.18
2023-02-28T13:10:43.252Z,5.45
2023-02-28T13:13:16.258Z,5.68
2023-02-28T13:15:58.799Z,5.95
2023-02-28T13:18:31.257Z,5.90
2023-02-28T13:20:57.901Z,5.78
2023-02-28T13:23:58.061Z,5.78
2023-02-28T13:26:51.133Z,5.45
2023-02-28T13:29:17.675Z,5.50
2023-02-28T13:32:09.194Z,5.43
2023-02-28T13:34:40.526Z,5.70
2023-02-28T13:37:22.459Z,5.55
2023-02-28T13:39:54.303Z,5.80
2023-02-28T13:42:37.993Z,5.43
2023-02-28T13:45:04.705Z,5.32
2023-02-28T13:47:47.791Z,5.60
2023-02-28T13:50:27.910Z,5.50
2023-02-28T13:53:16.292Z,5.55
2023-02-28T13:56:20.527Z,5.50
2023-02-28T13:59:25.709Z,5.22
2023-02-28T14:02:17.804Z,5.50
2023-02-28T14:05:05.794Z,5.32
2023-02-28T14:07:37.930Z,4.78
2023-02-28T14:10:06.936Z,4.78
2023-02-28T14:13:01.362Z,5.13
2023-02-28T14:15:34.147Z,5.43
2023-02-28T14:18:07.167Z,4.80
2023-02-28T14:20:34.997Z,4.80
2023-02-28T14:23:49.261Z,4.95
2023-02-28T14:26:39.856Z,4.55
2023-02-28T14:29:15.967Z,5.07
2023-02-28T14:31:47.221Z,4.78
2023-02-28T14:34:13.817Z,4.70
2023-02-28T14:36:42.358Z,4.60
2023-02-28T14:39:17.493Z,4.53
2023-02-28T14:41:45.695Z,4.40
2023-02-28T14:44:24.354Z,4.40
2023-02-28T14:46:56.707Z,4.38
2023-02-28T14:49:26.329Z,4.57
2023-02-28T14:52:07.073Z,4.72
2023-02-28T14:54:33.749Z,4.50
2023-02-28T14:57:00.327Z,4.18
2023-02-28T14:59:30.537Z,4.40
2023-02-28T15:02:20.868Z,4.60
2023-02-28T15:05:01.717Z,3.83
2023-02-28T15:07:31.221Z,4.68
2023-02-28T15:10:19.401Z,4.03
2023-02-28T15:12:57.904Z,3.88
2023-02-28T15:16:02.234Z,3.83
2023-02-28T15:18:34.688Z,3.90
2023-02-28T15:21:06.069Z,4.28
2023-02-28T15:23:32.969Z,4.40
2023-02-28T15:26:00.292Z,4.15
2023-02-28T15:28:27.361Z,3.97
2023-02-28T15:31:00.007Z,4.05
2023-02-28T15:33:29.499Z,4.00
2023-02-28T15:36:15.175Z,3.78
2023-02-28T15:38:42.231Z,3.70
2023-02-28T15:41:23.525Z,4.18
2023-02-28T15:43:50.112Z,4.22
2023-02-28T15:46:16.930Z,4.10
2023-02-28T15:48:52.793Z,3.70
2023-02-28T15:51:21.932Z,4.10
2023-02-28T15:53:50.099Z,4.10
2023-02-28T15:56:53.900Z,4.20
2023-02-28T15:59:31.144Z,4.20
2023-02-28T16:02:12.756Z,3.88
2023-02-28T16:04:56.211Z,3.97
2023-02-28T16:07:22.917Z,3.97
2023-02-28T16:09:49.487Z,4.07
2023-02-28T16:12:17.859Z,3.85
2023-02-28T16:14:46.353Z,3.72
2023-02-28T16:17:27.312Z,3.70
2023-02-28T16:19:54.458Z,4.00
2023-02-28T16:22:21.329Z,3.60
2023-02-28T16:24:47.910Z,4.00
2023-02-28T16:27:29.818Z,3.90
2023-02-28T16:29:56.430Z,4.00
2023-02-28T16:32:23.180Z,3.95
2023-02-28T16:34:49.873Z,4.00
2023-02-28T16:37:18.548Z,3.97
2023-02-28T16:39:45.997Z,3.85
2023-02-28T16:42:24.598Z,4.10
2023-02-28T16:44:51.213Z,3.83
2023-02-28T16:47:17.834Z,4.00
2023-02-28T16:49:44.574Z,3.92
2023-02-28T16:52:12.784Z,4.25
2023-02-28T16:54:40.797Z,3.80
2023-02-28T16:57:08.344Z,4.05
2023-02-28T16:59:34.984Z,4.00
2023-02-28T17:02:01.728Z,3.90
2023-02-28T17:04:28.863Z,4.00
2023-02-28T17:06:55.495Z,3.80
2023-02-28T17:09:28.275Z,3.80
2023-02-28T17:11:57.780Z,3.92
2023-02-28T17:14:24.511Z,4.22
2023-02-28T17:16:51.196Z,3.65
2023-02-28T17:19:19.183Z,4.10
2023-02-28T17:21:45.982Z,3.85
2023-02-28T17:24:28.971Z,4.20
2023-02-28T17:26:57.032Z,3.87
2023-02-28T17:29:25.331Z,4.13
2023-02-28T17:31:51.990Z,3.90
2023-02-28T17:34:21.501Z,3.90
2023-02-28T17:36:50.817Z,3.90
2023-02-28T17:39:25.133Z,4.20
2023-02-28T17:41:52.774Z,4.25
2023-02-28T17:44:20.052Z,3.92
2023-02-28T17:46:47.107Z,3.92
2023-02-28T17:49:14.156Z,4.03
2023-02-28T17:51:40.704Z,4.00
2023-02-28T17:54:07.446Z,3.80
2023-02-28T17:56:34.061Z,4.03
2023-02-28T17:59:01.307Z,3.80
2023-02-28T18:01:28.008Z,4.07
2023-02-28T18:03:55.229Z,3.97
2023-02-28T18:06:28.494Z,3.80
2023-02-28T18:08:55.461Z,4.00
2023-02-28T18:11:23.066Z,3.97
2023-02-28T18:13:55.146Z,4.00
2023-02-28T18:16:22.811Z,3.60
2023-02-28T18:18:50.319Z,3.45
2023-02-28T18:21:17.242Z,3.90
2023-02-28T18:23:48.414Z,3.67
2023-02-28T18:26:16.226Z,3.92
2023-02-28T18:28:44.519Z,4.15
2023-02-28T18:31:13.310Z,3.83
2023-02-28T18:33:40.076Z,3.83
2023-02-28T18:36:06.951Z,3.40
2023-02-28T18:38:33.593Z,3.90
2023-02-28T18:41:04.650Z,4.13
2023-02-28T18:43:32.499Z,3.80
2023-02-28T18:46:12.932Z,3.85
2023-02-28T18:48:39.618Z,3.65
2023-02-28T18:51:10.955Z,3.90
2023-02-28T18:53:38.610Z,3.65
2023-02-28T18:56:06.458Z,4.15
2023-02-28T18:58:36.154Z,3.72
2023-02-28T19:01:04.336Z,3.58
2023-02-28T19:03:30.976Z,4.00
2023-02-28T19:05:58.996Z,3.85
2023-02-28T19:08:25.820Z,3.80
2023-02-28T19:10:52.714Z,3.97
2023-02-28T19:13:20.767Z,4.28
2023-02-28T19:15:48.098Z,4.07
2023-02-28T19:18:14.977Z,4.20
2023-02-28T19:20:41.776Z,3.67
2023-02-28T19:23:10.421Z,3.85
2023-02-28T19:25:41.273Z,4.40
2023-02-28T19:28:07.843Z,4.25
2023-02-28T19:30:34.461Z,4.30
2023-02-28T19:33:00.990Z,4.47
2023-02-28T19:35:27.583Z,4.50
2023-02-28T19:37:54.196Z,4.40
2023-02-28T19:40:20.855Z,4.25
2023-02-28T19:42:47.576Z,4.50
2023-02-28T19:45:14.920Z,4.00
2023-02-28T19:47:42.038Z,4.68
2023-02-28T19:50:09.308Z,4.35
2023-02-28T19:52:35.974Z,4.00
2023-02-28T19:55:02.562Z,4.40
2023-02-28T19:57:29.197Z,4.50
2023-02-28T19:59:55.811Z,4.32
2023-02-28T20:02:22.992Z,4.07
2023-02-28T20:04:50.808Z,4.03
2023-02-28T20:07:20.227Z,4.15
2023-02-28T20:09:47.854Z,4.20
2023-02-28T20:12:23.998Z,3.90
2023-02-28T20:14:51.215Z,3.92
2023-02-28T20:17:17.982Z,4.13
2023-02-28T20:19:44.712Z,4.13
2023-02-28T20:22:11.328Z,4.05
2023-02-28T20:24:37.869Z,3.83
2023-02-28T20:27:07.224Z,4.00
2023-02-28T20:29:34.561Z,4.03
2023-02-28T20:32:01.243Z,4.15
2023-02-28T20:34:27.903Z,4.03
2023-02-28T20:36:56.506Z,4.10
2023-02-28T20:39:23.851Z,3.75
2023-02-28T20:41:50.642Z,4.07
2023-02-28T20:44:17.583Z,4.03
2023-02-28T20:46:44.318Z,4.40
2023-02-28T20:49:11.445Z,4.22
2023-02-28T20:51:42.248Z,4.30
2023-02-28T20:54:11.238Z,4.40
2023-02-28T20:56:38.357Z,4.07
2023-02-28T20:59:05.671Z,4.18
2023-02-28T21:01:32.513Z,4.10
2023-02-28T21:04:02.670Z,4.32
2023-02-28T21:06:34.918Z,4.38
2023-02-28T21:09:01.541Z,4.18
2023-02-28T21:11:33.204Z,4.47
2023-02-28T21:14:04.710Z,4.55
2023-02-28T21:16:31.942Z,4.30
2023-02-28T21:19:04.709Z,4.30
2023-02-28T21:21:45.360Z,4.40
2023-02-28T21:24:13.111Z,4.93
2023-02-28T21:26:40.754Z,4.80
2023-02-28T21:29:07.594Z,5.00
2023-02-28T21:31:35.507Z,4.88
2023-02-28T21:34:04.055Z,4.97
2023-02-28T21:36:39.653Z,5.22
2023-02-28T21:39:13.618Z,5.15
2023-02-28T21:41:40.321Z,5.45
2023-02-28T21:44:07.215Z,5.78
2023-02-28T21:46:34.314Z,6.78
2023-02-28T21:49:01.084Z,6.25
2023-02-28T21:51:31.187Z,6.32
2023-02-28T21:53:58.908Z,6.10
2023-02-28T21:56:28.511Z,6.30
2023-02-28T21:59:01.676Z,7.03
2023-02-28T22:01:40.371Z,6.50
2023-02-28T22:04:09.383Z,7.03
2023-02-28T22:06:39.402Z,7.30
2023-02-28T22:09:07.804Z,6.95
2023-02-28T22:11:35.380Z,7.25
2023-02-28T22:14:02.224Z,7.93
2023-02-28T22:16:33.209Z,7.82
2023-02-28T22:19:07.401Z,8.13
2023-02-28T22:21:35.786Z,8.05
2023-02-28T22:24:03.652Z,8.15
2023-02-28T22:26:31.230Z,8.07
2023-02-28T22:28:58.348Z,7.93
2023-02-28T22:31:26.484Z,8.63
2023-02-28T22:33:56.143Z,7.78
2023-02-28T22:36:23.441Z,8.25
2023-02-28T22:38:50.961Z,8.07
2023-02-28T22:41:20.162Z,7.88
2023-02-28T22:43:52.087Z,7.93
2023-02-28T22:46:19.048Z,7.93
2023-02-28T22:48:47.935Z,7.75
2023-02-28T22:51:16.697Z,8.00
2023-02-28T22:53:44.967Z,7.80
2023-02-28T22:56:13.179Z,7.78
2023-02-28T22:58:39.828Z,8.10
2023-02-28T23:01:11.778Z,7.55
2023-02-28T23:03:39.000Z,8.07
2023-02-28T23:06:18.953Z,8.18
2023-02-28T23:08:45.618Z,8.02
2023-02-28T23:11:18.554Z,7.75
2023-02-28T23:13:58.164Z,7.63
2023-02-28T23:16:29.716Z,7.38
2023-02-28T23:18:57.853Z,8.52
2023-02-28T23:21:24.528Z,7.65
2023-02-28T23:23:51.375Z,7.72
2023-02-28T23:26:18.096Z,8.20
2023-02-28T23:28:44.849Z,7.93
2023-02-28T23:31:11.464Z,7.72
2023-02-28T23:33:38.082Z,7.97
2023-02-28T23:36:12.608Z,8.07
2023-02-28T23:38:42.697Z,8.30
2023-02-28T23:41:10.112Z,8.05
2023-02-28T23:43:37.360Z,8.32
2023-02-28T23:46:04.697Z,8.57
2023-02-28T23:48:31.511Z,8.38
2023-02-28T23:51:10.721Z,8.32
2023-02-28T23:53:38.675Z,8.45
2023-02-28T23:56:06.871Z,8.50
2023-02-28T23:58:33.893Z,8.38
